createdAt,value
2018-12-30T00:00:05.304Z,23.05
2018-12-30T00:01:15.311Z,23.01
2018-12-30T00:02:26.224Z,23
2018-12-30T00:03:36.920Z,22.95
2018-12-30T00:04:47.781Z,22.95
2018-12-30T00:05:58.612Z,23.02
2018-12-30T00:07:08.653Z,22.97
2018-12-30T00:08:18.653Z,22.97
2018-12-30T00:09:28.780Z,22.91
2018-12-30T00:10:38.560Z,22.88
2018-12-30T00:11:47.598Z,22.9
2018-12-30T00:12:57.533Z,22.97
2018-12-30T00:14:07.890Z,22.9
2018-12-30T00:15:17.696Z,22.86
2018-12-30T00:16:27.617Z,22.88
2018-12-30T00:17:36.979Z,22.82
2018-12-30T00:18:47.169Z,22.86
2018-12-30T00:19:55.966Z,22.86
2018-12-30T00:21:13.521Z,22.83
2018-12-30T00:22:23.032Z,22.82
2018-12-30T00:23:32.557Z,22.86
2018-12-30T00:24:42.373Z,22.79
2018-12-30T00:25:51.639Z,22.77
2018-12-30T00:27:00.909Z,22.83
2018-12-30T00:28:10.434Z,22.77
2018-12-30T00:29:20.490Z,22.76
2018-12-30T00:30:29.772Z,22.79
2018-12-30T00:31:39.042Z,22.76
2018-12-30T00:32:48.372Z,22.8
2018-12-30T00:33:57.389Z,22.73
2018-12-30T00:35:06.912Z,22.7
2018-12-30T00:36:16.441Z,22.79
2018-12-30T00:37:26.268Z,22.75
2018-12-30T00:38:35.294Z,22.76
2018-12-30T00:39:44.844Z,22.67
2018-12-30T00:40:54.666Z,22.76
2018-12-30T00:42:04.178Z,22.75
2018-12-30T00:43:13.973Z,22.68
2018-12-30T00:44:23.210Z,22.67
2018-12-30T00:45:32.476Z,22.72
2018-12-30T00:46:41.277Z,22.68
2018-12-30T00:47:50.883Z,22.7
2018-12-30T00:49:00.434Z,22.72
2018-12-30T00:50:10.218Z,22.67
2018-12-30T00:51:21.851Z,22.7
2018-12-30T00:52:31.097Z,22.65
2018-12-30T00:53:40.373Z,22.65
2018-12-30T00:54:49.892Z,22.57
2018-12-30T00:55:59.496Z,22.61
2018-12-30T00:57:09.858Z,22.67
2018-12-30T00:58:19.532Z,22.58
2018-12-30T00:59:29.609Z,22.58
2018-12-30T01:00:40.554Z,22.6
2018-12-30T01:01:50.733Z,22.61
2018-12-30T01:03:00.224Z,22.57
2018-12-30T01:04:10.033Z,22.57
2018-12-30T01:05:19.728Z,22.57
2018-12-30T01:06:29.254Z,22.55
2018-12-30T01:07:39.306Z,22.58
2018-12-30T01:08:48.591Z,22.64
2018-12-30T01:09:58.348Z,22.58
2018-12-30T01:11:07.891Z,22.54
2018-12-30T01:12:17.879Z,22.61
2018-12-30T01:13:27.888Z,22.55
2018-12-30T01:14:37.215Z,22.58
2018-12-30T01:15:46.995Z,22.65
2018-12-30T01:16:55.765Z,22.6
2018-12-30T01:18:05.105Z,22.61
2018-12-30T01:19:14.652Z,22.57
2018-12-30T01:20:23.939Z,22.57
2018-12-30T01:21:33.471Z,22.6
2018-12-30T01:22:43.268Z,22.54
2018-12-30T01:23:53.047Z,22.55
2018-12-30T01:25:03.353Z,22.61
2018-12-30T01:26:12.618Z,22.52
2018-12-30T01:27:21.665Z,22.55
2018-12-30T01:28:30.697Z,22.55
2018-12-30T01:29:40.491Z,22.6
2018-12-30T01:30:49.751Z,22.6
2018-12-30T01:31:59.257Z,22.55
2018-12-30T01:33:08.990Z,22.58
2018-12-30T01:34:18.305Z,22.55
2018-12-30T01:35:28.075Z,22.57
2018-12-30T01:36:37.319Z,22.55
2018-12-30T01:37:46.879Z,22.54
2018-12-30T01:38:56.409Z,22.51
2018-12-30T01:40:05.692Z,22.52
2018-12-30T01:41:14.757Z,22.52
2018-12-30T01:42:23.776Z,22.6
2018-12-30T01:43:33.917Z,22.52
2018-12-30T01:44:42.941Z,22.47
2018-12-30T01:45:52.479Z,22.43
2018-12-30T01:47:01.502Z,22.47
2018-12-30T01:48:11.136Z,22.43
2018-12-30T01:49:20.160Z,22.42
2018-12-30T01:50:29.453Z,22.4
2018-12-30T01:51:38.737Z,22.43
2018-12-30T01:52:48.619Z,22.39
2018-12-30T01:53:58.279Z,22.46
2018-12-30T01:55:08.488Z,22.45
2018-12-30T01:56:18.713Z,22.42
2018-12-30T01:57:28.889Z,22.47
2018-12-30T01:58:38.750Z,22.46
2018-12-30T01:59:48.519Z,22.45
2018-12-30T02:00:58.410Z,22.35
2018-12-30T02:02:07.674Z,22.43
2018-12-30T02:03:17.461Z,22.46
2018-12-30T02:04:26.685Z,22.46
2018-12-30T02:05:36.184Z,22.45
2018-12-30T02:06:45.420Z,22.43
2018-12-30T02:07:55.456Z,22.43
2018-12-30T02:09:04.300Z,22.46
2018-12-30T02:10:13.553Z,22.45
2018-12-30T02:11:23.036Z,22.4
2018-12-30T02:12:32.534Z,22.42
2018-12-30T02:13:41.776Z,22.39
2018-12-30T02:14:51.023Z,22.4
2018-12-30T02:16:00.021Z,22.4
2018-12-30T02:17:09.997Z,22.36
2018-12-30T02:18:18.719Z,22.36
2018-12-30T02:19:27.787Z,22.42
2018-12-30T02:20:37.075Z,22.39
2018-12-30T02:21:47.049Z,22.39
2018-12-30T02:22:56.259Z,22.36
2018-12-30T02:24:05.501Z,22.4
2018-12-30T02:25:14.773Z,22.39
2018-12-30T02:26:23.497Z,22.35
2018-12-30T02:27:32.751Z,22.28
2018-12-30T02:28:42.250Z,22.33
2018-12-30T02:29:51.737Z,22.31
2018-12-30T02:31:00.958Z,22.42
2018-12-30T02:32:09.718Z,22.25
2018-12-30T02:33:19.234Z,22.37
2018-12-30T02:34:29.004Z,22.3
2018-12-30T02:35:38.251Z,22.35
2018-12-30T02:36:47.285Z,22.27
2018-12-30T02:37:56.760Z,22.31
2018-12-30T02:39:06.227Z,22.31
2018-12-30T02:40:16.470Z,22.27
2018-12-30T02:41:26.550Z,22.28
2018-12-30T02:42:37.415Z,22.3
2018-12-30T02:43:47.708Z,22.35
2018-12-30T02:44:57.765Z,22.24
2018-12-30T02:46:06.731Z,22.22
2018-12-30T02:47:16.254Z,22.27
2018-12-30T02:48:26.011Z,22.25
2018-12-30T02:49:35.481Z,22.24
2018-12-30T02:50:44.478Z,22.24
2018-12-30T02:51:55.359Z,22.3
2018-12-30T02:53:04.837Z,22.22
2018-12-30T02:54:14.366Z,22.33
2018-12-30T02:55:23.378Z,22.27
2018-12-30T02:56:33.109Z,22.28
2018-12-30T02:57:42.985Z,22.28
2018-12-30T02:58:52.130Z,22.27
2018-12-30T03:00:02.148Z,22.27
2018-12-30T03:01:11.904Z,22.25
2018-12-30T03:02:21.621Z,22.27
2018-12-30T03:03:30.602Z,22.22
2018-12-30T03:04:40.320Z,22.22
2018-12-30T03:05:49.534Z,22.22
2018-12-30T03:06:59.330Z,22.25
2018-12-30T03:08:09.061Z,22.22
2018-12-30T03:09:18.303Z,22.24
2018-12-30T03:10:27.758Z,22.21
2018-12-30T03:11:37.237Z,22.2
2018-12-30T03:12:46.954Z,22.2
2018-12-30T03:13:56.204Z,22.24
2018-12-30T03:15:05.172Z,22.24
2018-12-30T03:16:14.776Z,22.18
2018-12-30T03:17:24.577Z,22.24
2018-12-30T03:18:34.824Z,22.18
2018-12-30T03:19:45.889Z,22.22
2018-12-30T03:20:55.870Z,22.18
2018-12-30T03:22:05.066Z,22.14
2018-12-30T03:23:14.786Z,22.22
2018-12-30T03:24:24.222Z,22.18
2018-12-30T03:25:33.725Z,22.2
2018-12-30T03:26:42.904Z,22.17
2018-12-30T03:27:52.322Z,22.21
2018-12-30T03:29:02.013Z,22.2
2018-12-30T03:30:11.498Z,22.22
2018-12-30T03:31:21.304Z,22.21
2018-12-30T03:32:31.062Z,22.22
2018-12-30T03:33:41.062Z,22.25
2018-12-30T03:34:50.288Z,22.21
2018-12-30T03:35:59.977Z,22.2
2018-12-30T03:37:09.431Z,22.14
2018-12-30T03:38:18.379Z,22.18
2018-12-30T03:39:27.873Z,22.21
2018-12-30T03:40:36.829Z,22.21
2018-12-30T03:41:46.324Z,22.18
2018-12-30T03:42:55.768Z,22.18
2018-12-30T03:44:05.525Z,22.21
2018-12-30T03:45:15.256Z,22.18
2018-12-30T03:46:24.697Z,22.14
2018-12-30T03:47:34.147Z,22.14
2018-12-30T03:48:43.857Z,22.07
2018-12-30T03:49:53.924Z,22.2
2018-12-30T03:51:03.352Z,22.24
2018-12-30T03:52:13.681Z,22.09
2018-12-30T03:53:22.721Z,22.14
2018-12-30T03:54:32.150Z,22.2
2018-12-30T03:55:41.578Z,22.14
2018-12-30T03:56:50.764Z,22.18
2018-12-30T03:57:59.945Z,22.07
2018-12-30T03:59:09.144Z,22.1
2018-12-30T04:00:18.318Z,22.14
2018-12-30T04:01:27.316Z,22.06
2018-12-30T04:02:36.755Z,22.07
2018-12-30T04:03:46.612Z,22.1
2018-12-30T04:04:55.585Z,22.05
2018-12-30T04:06:05.044Z,22.05
2018-12-30T04:07:14.242Z,22.14
2018-12-30T04:08:23.748Z,22.1
2018-12-30T04:09:33.192Z,22.02
2018-12-30T04:10:42.885Z,22.09
2018-12-30T04:11:52.318Z,22.14
2018-12-30T04:13:01.002Z,22.14
2018-12-30T04:14:10.958Z,22.06
2018-12-30T04:15:20.162Z,22.09
2018-12-30T04:16:29.598Z,22.07
2018-12-30T04:17:39.071Z,22.05
2018-12-30T04:18:48.784Z,22.09
2018-12-30T04:19:58.563Z,22.14
2018-12-30T04:21:07.513Z,22.1
2018-12-30T04:22:21.829Z,22.06
2018-12-30T04:23:31.519Z,22.07
2018-12-30T04:24:40.707Z,22.1
2018-12-30T04:25:49.905Z,22.05
2018-12-30T04:26:59.117Z,22.07
2018-12-30T04:28:08.304Z,22.07
2018-12-30T04:29:17.501Z,21.99
2018-12-30T04:30:27.451Z,22.03
2018-12-30T04:31:37.391Z,22.07
2018-12-30T04:32:46.326Z,21.98
2018-12-30T04:33:55.793Z,22.1
2018-12-30T04:35:04.756Z,21.96
2018-12-30T04:36:13.930Z,21.94
2018-12-30T04:37:23.393Z,21.99
2018-12-30T04:38:32.841Z,22.03
2018-12-30T04:39:42.287Z,22.05
2018-12-30T04:40:51.790Z,21.96
2018-12-30T04:42:01.744Z,21.99
2018-12-30T04:43:10.953Z,21.96
2018-12-30T04:44:20.392Z,22
2018-12-30T04:45:30.099Z,21.94
2018-12-30T04:46:40.054Z,21.98
2018-12-30T04:47:49.526Z,21.94
2018-12-30T04:48:59.048Z,21.94
2018-12-30T04:50:08.755Z,21.9
2018-12-30T04:51:18.693Z,21.98
2018-12-30T04:52:30.671Z,21.98
2018-12-30T04:53:40.111Z,21.99
2018-12-30T04:54:49.051Z,21.99
2018-12-30T04:55:58.261Z,22
2018-12-30T04:57:07.975Z,21.98
2018-12-30T04:58:17.665Z,21.98
2018-12-30T04:59:27.396Z,21.96
2018-12-30T05:00:37.362Z,21.94
2018-12-30T05:01:47.051Z,21.88
2018-12-30T05:02:56.501Z,21.98
2018-12-30T05:04:06.208Z,21.96
2018-12-30T05:05:15.899Z,21.88
2018-12-30T05:06:25.870Z,21.98
2018-12-30T05:07:34.802Z,21.96
2018-12-30T05:08:44.227Z,21.94
2018-12-30T05:09:53.694Z,21.92
2018-12-30T05:11:02.616Z,21.88
2018-12-30T05:12:12.103Z,21.94
2018-12-30T05:13:21.839Z,21.92
2018-12-30T05:14:30.528Z,21.99
2018-12-30T05:15:39.962Z,21.86
2018-12-30T05:16:49.409Z,21.99
2018-12-30T05:17:58.864Z,21.88
2018-12-30T05:19:08.809Z,21.96
2018-12-30T05:20:18.005Z,21.96
2018-12-30T05:21:27.441Z,21.9
2018-12-30T05:22:38.411Z,21.96
2018-12-30T05:23:47.843Z,21.96
2018-12-30T05:24:57.266Z,21.94
2018-12-30T05:26:06.780Z,21.9
2018-12-30T05:27:15.774Z,21.92
2018-12-30T05:28:24.729Z,21.91
2018-12-30T05:29:33.952Z,21.96
2018-12-30T05:30:43.158Z,21.9
2018-12-30T05:31:52.357Z,21.91
2018-12-30T05:33:01.593Z,21.83
2018-12-30T05:34:10.794Z,21.86
2018-12-30T05:35:20.272Z,21.92
2018-12-30T05:36:29.485Z,21.86
2018-12-30T05:37:38.929Z,21.91
2018-12-30T05:38:48.660Z,21.9
2018-12-30T05:39:58.098Z,21.91
2018-12-30T05:41:09.677Z,21.92
2018-12-30T05:42:19.633Z,21.82
2018-12-30T05:43:29.156Z,21.94
2018-12-30T05:44:38.597Z,21.9
2018-12-30T05:45:48.326Z,21.86
2018-12-30T05:46:57.522Z,21.9
2018-12-30T05:48:06.520Z,21.82
2018-12-30T05:49:15.996Z,21.91
2018-12-30T05:50:24.973Z,21.86
2018-12-30T05:51:34.150Z,21.86
2018-12-30T05:52:46.769Z,21.9
2018-12-30T05:53:55.710Z,21.82
2018-12-30T05:55:05.406Z,21.9
2018-12-30T05:56:14.594Z,21.79
2018-12-30T05:57:24.091Z,21.88
2018-12-30T05:58:33.536Z,21.77
2018-12-30T05:59:42.745Z,21.86
2018-12-30T06:00:52.227Z,21.82
2018-12-30T06:02:01.171Z,21.75
2018-12-30T06:03:09.853Z,21.79
2018-12-30T06:04:19.302Z,21.88
2018-12-30T06:05:28.722Z,21.82
2018-12-30T06:06:38.159Z,21.88
2018-12-30T06:07:47.116Z,21.74
2018-12-30T06:08:56.116Z,21.74
2018-12-30T06:10:05.599Z,21.74
2018-12-30T06:11:15.039Z,21.79
2018-12-30T06:12:24.251Z,21.88
2018-12-30T06:13:33.191Z,21.69
2018-12-30T06:14:42.643Z,21.77
2018-12-30T06:15:52.106Z,21.91
2018-12-30T06:17:01.290Z,21.9
2018-12-30T06:18:10.965Z,21.86
2018-12-30T06:19:20.176Z,21.77
2018-12-30T06:20:29.870Z,21.79
2018-12-30T06:21:38.807Z,21.88
2018-12-30T06:22:54.282Z,21.8
2018-12-30T06:24:03.211Z,21.86
2018-12-30T06:25:12.665Z,21.83
2018-12-30T06:26:22.100Z,21.8
2018-12-30T06:27:31.289Z,21.79
2018-12-30T06:28:40.746Z,21.82
2018-12-30T06:29:50.207Z,21.83
2018-12-30T06:30:59.918Z,21.77
2018-12-30T06:32:09.652Z,21.79
2018-12-30T06:33:18.847Z,21.8
2018-12-30T06:34:28.274Z,21.72
2018-12-30T06:35:37.475Z,21.77
2018-12-30T06:36:46.689Z,21.88
2018-12-30T06:37:55.868Z,21.71
2018-12-30T06:39:05.034Z,21.71
2018-12-30T06:40:16.160Z,21.79
2018-12-30T06:41:25.379Z,21.79
2018-12-30T06:42:34.338Z,21.71
2018-12-30T06:43:43.525Z,21.74
2018-12-30T06:44:52.724Z,21.71
2018-12-30T06:46:01.924Z,21.72
2018-12-30T06:47:11.368Z,21.77
2018-12-30T06:48:20.798Z,21.75
2018-12-30T06:49:30.254Z,21.71
2018-12-30T06:50:39.934Z,21.74
2018-12-30T06:51:48.875Z,21.74
2018-12-30T06:53:02.011Z,21.72
2018-12-30T06:54:10.953Z,21.77
2018-12-30T06:55:20.671Z,21.77
2018-12-30T06:56:30.119Z,21.74
2018-12-30T06:57:39.356Z,21.74
2018-12-30T06:58:48.845Z,21.75
2018-12-30T06:59:58.036Z,21.67
2018-12-30T07:01:07.739Z,21.74
2018-12-30T07:02:17.488Z,21.79
2018-12-30T07:03:26.685Z,21.72
2018-12-30T07:04:35.888Z,21.72
2018-12-30T07:05:45.613Z,21.65
2018-12-30T07:06:55.151Z,21.75
2018-12-30T07:08:04.363Z,21.77
2018-12-30T07:09:13.565Z,21.74
2018-12-30T07:10:23.503Z,21.77
2018-12-30T07:11:32.941Z,21.69
2018-12-30T07:12:42.881Z,21.71
2018-12-30T07:13:52.593Z,21.67
2018-12-30T07:15:01.819Z,21.65
2018-12-30T07:16:11.547Z,21.77
2018-12-30T07:17:21.276Z,21.64
2018-12-30T07:18:30.485Z,21.72
2018-12-30T07:19:40.441Z,21.67
2018-12-30T07:20:50.125Z,21.72
2018-12-30T07:22:00.080Z,21.64
2018-12-30T07:23:10.977Z,21.71
2018-12-30T07:24:20.954Z,21.69
2018-12-30T07:25:30.413Z,21.65
2018-12-30T07:26:39.926Z,21.65
2018-12-30T07:27:49.401Z,21.65
2018-12-30T07:28:58.875Z,21.67
2018-12-30T07:30:08.630Z,21.67
2018-12-30T07:31:17.846Z,21.62
2018-12-30T07:32:27.280Z,21.65
2018-12-30T07:33:36.544Z,21.69
2018-12-30T07:34:45.769Z,21.69
2018-12-30T07:35:54.997Z,21.71
2018-12-30T07:37:04.938Z,21.62
2018-12-30T07:38:14.386Z,21.65
2018-12-30T07:39:23.822Z,21.64
2018-12-30T07:40:33.037Z,21.69
2018-12-30T07:41:42.466Z,21.67
2018-12-30T07:42:52.036Z,21.64
2018-12-30T07:44:01.242Z,21.61
2018-12-30T07:45:10.744Z,21.68
2018-12-30T07:46:20.203Z,21.67
2018-12-30T07:47:29.428Z,21.64
2018-12-30T07:48:38.426Z,21.54
2018-12-30T07:49:47.908Z,21.61
2018-12-30T07:50:57.105Z,21.65
2018-12-30T07:52:06.068Z,21.61
2018-12-30T07:53:18.876Z,21.61
2018-12-30T07:54:28.098Z,21.61
2018-12-30T07:55:37.327Z,21.61
2018-12-30T07:56:46.603Z,21.64
2018-12-30T07:57:56.077Z,21.64
2018-12-30T07:59:05.499Z,21.62
2018-12-30T08:00:14.959Z,21.64
2018-12-30T08:01:24.180Z,21.62
2018-12-30T08:02:33.396Z,21.62
2018-12-30T08:03:43.129Z,21.61
2018-12-30T08:04:52.121Z,21.56
2018-12-30T08:06:01.658Z,21.61
2018-12-30T08:07:11.411Z,21.56
2018-12-30T08:08:20.872Z,21.56
2018-12-30T08:09:30.060Z,21.61
2018-12-30T08:10:39.556Z,21.54
2018-12-30T08:11:49.079Z,21.52
2018-12-30T08:12:58.277Z,21.59
2018-12-30T08:14:07.468Z,21.61
2018-12-30T08:15:16.927Z,21.61
2018-12-30T08:16:26.630Z,21.58
2018-12-30T08:17:35.835Z,21.59
2018-12-30T08:18:45.303Z,21.49
2018-12-30T08:19:54.505Z,21.54
2018-12-30T08:21:03.736Z,21.52
2018-12-30T08:22:13.498Z,21.56
2018-12-30T08:23:26.410Z,21.53
2018-12-30T08:24:35.589Z,21.56
2018-12-30T08:25:44.642Z,21.5
2018-12-30T08:26:53.837Z,21.59
2018-12-30T08:28:03.076Z,21.53
2018-12-30T08:29:12.515Z,21.54
2018-12-30T08:30:21.480Z,21.5
2018-12-30T08:31:30.745Z,21.59
2018-12-30T08:32:39.941Z,21.56
2018-12-30T08:33:49.125Z,21.59
2018-12-30T08:34:58.846Z,21.65
2018-12-30T08:36:08.577Z,21.56
2018-12-30T08:37:17.847Z,21.59
2018-12-30T08:38:26.917Z,21.54
2018-12-30T08:39:36.182Z,21.53
2018-12-30T08:40:47.026Z,21.58
2018-12-30T08:41:56.193Z,21.59
2018-12-30T08:43:05.645Z,21.59
2018-12-30T08:44:15.151Z,21.56
2018-12-30T08:45:24.650Z,21.59
2018-12-30T08:46:33.887Z,21.56
2018-12-30T08:47:43.404Z,21.56
2018-12-30T08:48:54.286Z,21.59
2018-12-30T08:50:03.600Z,21.54
2018-12-30T08:51:14.934Z,21.56
2018-12-30T08:52:24.223Z,21.58
2018-12-30T08:53:34.367Z,21.58
2018-12-30T08:54:43.568Z,21.62
2018-12-30T08:55:52.304Z,21.56
2018-12-30T08:57:01.341Z,21.54
2018-12-30T08:58:10.621Z,21.52
2018-12-30T08:59:19.860Z,21.56
2018-12-30T09:00:28.909Z,21.53
2018-12-30T09:01:38.384Z,21.53
2018-12-30T09:02:47.600Z,21.59
2018-12-30T09:03:56.938Z,21.54
2018-12-30T09:05:06.394Z,21.56
2018-12-30T09:06:15.894Z,21.54
2018-12-30T09:07:25.217Z,21.56
2018-12-30T09:08:35.139Z,21.58
2018-12-30T09:09:44.809Z,21.54
2018-12-30T09:10:55.250Z,21.54
2018-12-30T09:12:04.678Z,21.59
2018-12-30T09:13:14.165Z,21.56
2018-12-30T09:14:23.667Z,21.54
2018-12-30T09:15:33.131Z,21.52
2018-12-30T09:16:42.381Z,21.5
2018-12-30T09:17:52.083Z,21.54
2018-12-30T09:19:01.288Z,21.53
2018-12-30T09:20:10.734Z,21.53
2018-12-30T09:21:19.998Z,21.54
2018-12-30T09:22:29.222Z,21.52
2018-12-30T09:23:42.467Z,21.56
2018-12-30T09:24:51.662Z,21.52
2018-12-30T09:26:01.123Z,21.58
2018-12-30T09:27:10.552Z,21.54
2018-12-30T09:28:20.232Z,21.58
2018-12-30T09:29:29.688Z,21.56
2018-12-30T09:30:38.643Z,21.54
2018-12-30T09:31:48.356Z,21.53
2018-12-30T09:32:57.530Z,21.53
2018-12-30T09:34:07.935Z,21.53
2018-12-30T09:35:17.110Z,21.56
2018-12-30T09:36:26.567Z,21.59
2018-12-30T09:37:36.292Z,21.58
2018-12-30T09:38:45.253Z,21.54
2018-12-30T09:39:54.762Z,21.56
2018-12-30T09:41:04.185Z,21.54
2018-12-30T09:42:13.640Z,21.54
2018-12-30T09:43:22.616Z,21.58
2018-12-30T09:44:32.307Z,21.56
2018-12-30T09:45:41.536Z,21.5
2018-12-30T09:46:50.842Z,21.56
2018-12-30T09:48:00.059Z,21.59
2018-12-30T09:49:09.517Z,21.56
2018-12-30T09:50:18.711Z,21.58
2018-12-30T09:51:28.189Z,21.56
2018-12-30T09:52:39.090Z,21.58
2018-12-30T09:53:49.989Z,21.56
2018-12-30T09:54:59.405Z,21.59
2018-12-30T09:56:08.384Z,21.5
2018-12-30T09:57:17.893Z,21.53
2018-12-30T09:58:27.339Z,21.59
2018-12-30T09:59:36.315Z,21.58
2018-12-30T10:00:45.274Z,21.56
2018-12-30T10:01:54.721Z,21.54
2018-12-30T10:03:04.225Z,21.53
2018-12-30T10:04:13.715Z,21.53
2018-12-30T10:05:23.962Z,21.58
2018-12-30T10:06:33.477Z,21.52
2018-12-30T10:07:42.662Z,21.53
2018-12-30T10:08:51.663Z,21.59
2018-12-30T10:10:01.108Z,21.47
2018-12-30T10:11:10.799Z,21.49
2018-12-30T10:12:20.233Z,21.58
2018-12-30T10:13:29.420Z,21.56
2018-12-30T10:14:39.111Z,21.49
2018-12-30T10:15:48.798Z,21.52
2018-12-30T10:16:58.016Z,21.52
2018-12-30T10:18:07.223Z,21.5
2018-12-30T10:19:16.651Z,21.54
2018-12-30T10:20:25.850Z,21.58
2018-12-30T10:21:35.029Z,21.59
2018-12-30T10:22:44.988Z,21.53
2018-12-30T10:23:57.769Z,21.59
2018-12-30T10:25:07.761Z,21.59
2018-12-30T10:26:18.418Z,21.53
2018-12-30T10:27:27.871Z,21.58
2018-12-30T10:28:37.070Z,21.58
2018-12-30T10:29:46.084Z,21.56
2018-12-30T10:30:55.537Z,21.56
2018-12-30T10:32:04.986Z,21.54
2018-12-30T10:33:14.418Z,21.53
2018-12-30T10:35:32.725Z,21.58
2018-12-30T10:36:42.246Z,21.56
2018-12-30T10:37:51.430Z,21.56
2018-12-30T10:39:00.874Z,21.54
2018-12-30T10:40:10.374Z,21.59
2018-12-30T10:41:19.556Z,21.58
2018-12-30T10:42:29.266Z,21.56
2018-12-30T10:43:38.949Z,21.56
2018-12-30T10:44:47.883Z,21.56
2018-12-30T10:45:57.561Z,21.53
2018-12-30T10:47:07.020Z,21.49
2018-12-30T10:48:16.203Z,21.49
2018-12-30T10:49:25.414Z,21.49
2018-12-30T10:50:34.612Z,21.58
2018-12-30T10:51:44.554Z,21.59
2018-12-30T10:52:53.730Z,21.43
2018-12-30T10:54:05.593Z,21.53
2018-12-30T10:55:14.782Z,21.49
2018-12-30T10:56:25.244Z,21.53
2018-12-30T10:57:34.672Z,21.52
2018-12-30T10:58:44.386Z,21.42
2018-12-30T10:59:53.561Z,21.47
2018-12-30T11:01:03.024Z,21.49
2018-12-30T11:02:12.501Z,21.49
2018-12-30T11:03:22.197Z,21.46
2018-12-30T11:04:31.624Z,21.53
2018-12-30T11:05:40.821Z,21.56
2018-12-30T11:06:49.998Z,21.58
2018-12-30T11:07:59.168Z,21.69
2018-12-30T11:09:08.100Z,21.72
2018-12-30T11:10:18.056Z,21.86
2018-12-30T11:11:27.491Z,21.98
2018-12-30T11:12:36.690Z,22.02
2018-12-30T11:13:46.118Z,22
2018-12-30T11:14:55.062Z,22.05
2018-12-30T11:16:05.002Z,22.17
2018-12-30T11:17:13.933Z,22.2
2018-12-30T11:18:23.121Z,22.27
2018-12-30T11:19:32.549Z,22.31
2018-12-30T11:20:42.054Z,22.4
2018-12-30T11:21:51.974Z,22.51
2018-12-30T11:23:01.552Z,22.54
2018-12-30T11:24:13.202Z,22.62
2018-12-30T11:25:22.918Z,22.58
2018-12-30T11:26:32.092Z,22.67
2018-12-30T11:27:41.263Z,22.7
2018-12-30T11:28:50.543Z,22.82
2018-12-30T11:29:59.494Z,22.85
2018-12-30T11:31:08.859Z,22.86
2018-12-30T11:32:18.901Z,22.97
2018-12-30T11:33:28.099Z,23.04
2018-12-30T11:34:37.272Z,23.01
2018-12-30T11:35:46.206Z,23.04
2018-12-30T11:36:55.663Z,23.07
2018-12-30T11:38:05.348Z,23.16
2018-12-30T11:39:15.296Z,23.13
2018-12-30T11:40:24.474Z,23.22
2018-12-30T11:41:33.959Z,23.28
2018-12-30T11:42:43.403Z,23.27
2018-12-30T11:43:52.943Z,23.27
2018-12-30T11:45:02.182Z,23.39
2018-12-30T11:46:11.365Z,23.35
2018-12-30T11:47:21.122Z,23.42
2018-12-30T11:48:30.073Z,23.46
2018-12-30T11:49:39.568Z,23.47
2018-12-30T11:50:49.173Z,23.54
2018-12-30T11:51:59.486Z,23.54
2018-12-30T11:53:09.084Z,23.47
2018-12-30T11:54:21.109Z,23.61
2018-12-30T11:55:29.796Z,23.65
2018-12-30T11:56:38.863Z,23.65
2018-12-30T11:57:48.656Z,23.63
2018-12-30T11:58:57.898Z,23.61
2018-12-30T12:00:07.735Z,23.83
2018-12-30T12:01:16.984Z,23.76
2018-12-30T12:02:29.182Z,23.7
2018-12-30T12:03:38.401Z,23.83
2018-12-30T12:04:48.095Z,23.78
2018-12-30T12:05:58.150Z,23.8
2018-12-30T12:07:08.222Z,23.84
2018-12-30T12:08:17.842Z,23.91
2018-12-30T12:09:27.148Z,23.9
2018-12-30T12:10:36.356Z,23.9
2018-12-30T12:11:45.801Z,23.91
2018-12-30T12:12:55.374Z,23.91
2018-12-30T12:14:04.811Z,23.97
2018-12-30T12:15:14.256Z,24.08
2018-12-30T12:16:23.063Z,24.02
2018-12-30T12:17:32.513Z,24.03
2018-12-30T12:18:41.936Z,24.06
2018-12-30T12:19:51.379Z,24.08
2018-12-30T12:21:00.943Z,24.12
2018-12-30T12:22:10.924Z,24.1
2018-12-30T12:23:20.629Z,24.2
2018-12-30T12:24:30.424Z,24.2
2018-12-30T12:25:39.664Z,24.24
2018-12-30T12:26:49.688Z,24.32
2018-12-30T12:27:59.418Z,24.3
2018-12-30T12:29:09.215Z,24.35
2018-12-30T12:30:18.909Z,24.21
2018-12-30T12:31:28.858Z,24.32
2018-12-30T12:32:37.789Z,24.34
2018-12-30T12:33:46.506Z,24.42
2018-12-30T12:34:56.294Z,24.32
2018-12-30T12:36:05.491Z,24.43
2018-12-30T12:37:15.411Z,24.39
2018-12-30T12:38:25.124Z,24.39
2018-12-30T12:39:34.408Z,24.35
2018-12-30T12:40:43.868Z,24.28
2018-12-30T12:41:54.245Z,24.4
2018-12-30T12:43:03.880Z,24.3
2018-12-30T12:44:13.103Z,24.45
2018-12-30T12:45:23.050Z,24.34
2018-12-30T12:46:32.772Z,24.45
2018-12-30T12:47:42.235Z,24.49
2018-12-30T12:48:51.975Z,24.4
2018-12-30T12:50:00.960Z,24.34
2018-12-30T12:51:10.634Z,24.43
2018-12-30T12:52:20.373Z,24.4
2018-12-30T12:53:29.579Z,24.4
2018-12-30T12:54:38.860Z,24.39
2018-12-30T12:55:48.339Z,24.43
2018-12-30T12:56:58.780Z,24.39
2018-12-30T12:58:07.710Z,24.43
2018-12-30T12:59:17.146Z,24.32
2018-12-30T13:00:26.341Z,24.46
2018-12-30T13:01:35.528Z,24.32
2018-12-30T13:02:46.904Z,24.45
2018-12-30T13:03:56.577Z,24.35
2018-12-30T13:05:05.796Z,24.28
2018-12-30T13:06:15.476Z,24.28
2018-12-30T13:07:24.928Z,24.39
2018-12-30T13:08:34.613Z,24.31
2018-12-30T13:09:43.823Z,24.4
2018-12-30T13:10:52.773Z,24.28
2018-12-30T13:12:02.459Z,24.3
2018-12-30T13:13:11.897Z,24.28
2018-12-30T13:14:21.342Z,24.28
2018-12-30T13:15:30.569Z,24.32
2018-12-30T13:16:39.989Z,24.24
2018-12-30T13:17:49.439Z,24.27
2018-12-30T13:18:58.874Z,24.28
2018-12-30T13:20:08.363Z,24.34
2018-12-30T13:21:17.555Z,24.24
2018-12-30T13:22:27.625Z,24.31
2018-12-30T13:23:37.156Z,24.22
2018-12-30T13:24:46.752Z,24.16
2018-12-30T13:25:56.254Z,24.13
2018-12-30T13:27:05.498Z,24.2
2018-12-30T13:28:14.745Z,24.24
2018-12-30T13:29:24.197Z,24.2
2018-12-30T13:30:33.407Z,24.09
2018-12-30T13:31:42.373Z,24.12
2018-12-30T13:32:51.820Z,24.2
2018-12-30T13:34:01.024Z,24.2
2018-12-30T13:35:10.452Z,24.2
2018-12-30T13:36:19.635Z,24.13
2018-12-30T13:37:29.084Z,24.25
2018-12-30T13:38:38.770Z,24.2
2018-12-30T13:39:48.227Z,24.13
2018-12-30T13:40:57.440Z,24.18
2018-12-30T13:42:07.323Z,24.24
2018-12-30T13:43:16.066Z,24.21
2018-12-30T13:44:25.819Z,24.16
2018-12-30T13:45:36.853Z,24.21
2018-12-30T13:46:46.048Z,24.27
2018-12-30T13:47:55.254Z,24.24
2018-12-30T13:49:04.464Z,24.21
2018-12-30T13:50:14.244Z,24.25
2018-12-30T13:51:23.704Z,24.16
2018-12-30T13:52:33.834Z,24.16
2018-12-30T13:53:43.294Z,24.15
2018-12-30T13:54:52.495Z,24.03
2018-12-30T13:56:01.679Z,24.18
2018-12-30T13:57:11.405Z,24.16
2018-12-30T13:58:20.657Z,24.06
2018-12-30T13:59:30.093Z,24.05
2018-12-30T14:00:39.760Z,24.09
2018-12-30T14:01:49.285Z,24.12
2018-12-30T14:02:58.737Z,24.05
2018-12-30T14:04:07.724Z,24.05
2018-12-30T14:05:16.967Z,24.03
2018-12-30T14:06:26.168Z,23.95
2018-12-30T14:07:35.593Z,24.02
2018-12-30T14:08:44.778Z,23.94
2018-12-30T14:09:54.202Z,23.95
2018-12-30T14:11:03.932Z,23.98
2018-12-30T14:12:12.881Z,23.94
2018-12-30T14:13:22.320Z,24.05
2018-12-30T14:14:31.830Z,23.98
2018-12-30T14:15:41.535Z,24.05
2018-12-30T14:16:58.216Z,24.13
2018-12-30T14:18:07.904Z,24.05
2018-12-30T14:19:17.612Z,24.16
2018-12-30T14:20:26.816Z,24.21
2018-12-30T14:21:36.254Z,24.22
2018-12-30T14:22:45.946Z,24.34
2018-12-30T14:23:55.644Z,24.18
2018-12-30T14:25:04.853Z,24.34
2018-12-30T14:26:13.791Z,24.42
2018-12-30T14:27:23.261Z,24.47
2018-12-30T14:28:32.698Z,24.34
2018-12-30T14:29:41.890Z,24.32
2018-12-30T14:30:51.088Z,24.35
2018-12-30T14:32:00.516Z,24.46
2018-12-30T14:33:09.482Z,24.42
2018-12-30T14:34:18.929Z,24.53
2018-12-30T14:35:28.395Z,24.5
2018-12-30T14:36:37.668Z,24.5
2018-12-30T14:37:46.866Z,24.57
2018-12-30T14:38:55.553Z,24.64
2018-12-30T14:40:04.754Z,24.65
2018-12-30T14:41:13.932Z,24.71
2018-12-30T14:42:23.127Z,24.73
2018-12-30T14:43:32.577Z,24.78
2018-12-30T14:44:41.537Z,24.81
2018-12-30T14:45:50.985Z,24.77
2018-12-30T14:47:00.426Z,24.71
2018-12-30T14:48:09.438Z,24.84
2018-12-30T14:49:18.158Z,24.84
2018-12-30T14:50:27.345Z,24.8
2018-12-30T14:51:36.302Z,24.81
2018-12-30T14:52:45.794Z,24.78
2018-12-30T14:53:55.227Z,24.88
2018-12-30T14:55:08.429Z,24.9
2018-12-30T14:56:17.377Z,24.88
2018-12-30T14:57:26.904Z,24.93
2018-12-30T14:58:36.141Z,24.93
2018-12-30T14:59:45.353Z,24.9